createdAt,value
2019-02-28T00:00:00.991Z,13.90
2019-02-28T00:01:00.971Z,14.20
2019-02-28T00:02:00.870Z,15.30
2019-02-28T00:03:00.814Z,14.10
2019-02-28T00:04:00.753Z,13.30
2019-02-28T00:05:05.859Z,14.00
2019-02-28T00:06:00.677Z,16.40
2019-02-28T00:07:00.577Z,12.60
2019-02-28T00:08:00.540Z,15.40
2019-02-28T00:09:00.478Z,17.20
2019-02-28T00:10:00.419Z,14.50
2019-02-28T00:11:02.095Z,13.80
2019-02-28T00:12:00.297Z,14.60
2019-02-28T00:13:00.267Z,13.30
2019-02-28T00:14:00.283Z,14.20
2019-02-28T00:15:00.252Z,16.20
2019-02-28T00:16:03.107Z,14.00
2019-02-28T00:17:00.036Z,14.60
2019-02-28T00:17:59.985Z,14.30
2019-02-28T00:18:59.915Z,14.50
2019-02-28T00:19:59.866Z,13.60
2019-02-28T00:20:59.845Z,13.70
2019-02-28T00:21:59.750Z,13.50
2019-02-28T00:22:59.702Z,13.30
2019-02-28T00:23:59.656Z,15.70
2019-02-28T00:25:01.166Z,13.70
2019-02-28T00:25:59.628Z,13.20
2019-02-28T00:26:59.464Z,13.10
2019-02-28T00:27:59.421Z,14.30
2019-02-28T00:29:00.393Z,15.10
2019-02-28T00:29:59.312Z,13.10
2019-02-28T00:30:59.280Z,14.60
2019-02-28T00:31:59.202Z,13.10
2019-02-28T00:32:59.922Z,13.30
2019-02-28T00:33:59.106Z,14.40
2019-02-28T00:34:59.055Z,12.80
2019-02-28T00:35:59.004Z,13.10
2019-02-28T00:36:58.954Z,15.60
2019-02-28T00:37:58.917Z,15.10
2019-02-28T00:38:59.933Z,14.10
2019-02-28T00:39:58.753Z,14.60
2019-02-28T00:40:58.782Z,15.10
2019-02-28T00:41:58.657Z,14.10
2019-02-28T00:42:58.593Z,15.40
2019-02-28T00:43:58.560Z,14.40
2019-02-28T00:45:02.272Z,13.90
2019-02-28T00:45:58.430Z,15.00
2019-02-28T00:46:58.396Z,13.70
2019-02-28T00:47:58.305Z,14.90
2019-02-28T00:48:58.250Z,14.60
2019-02-28T00:49:58.192Z,14.20
2019-02-28T00:50:59.166Z,14.70
2019-02-28T00:51:58.116Z,15.10
2019-02-28T00:52:58.036Z,15.80
2019-02-28T00:53:57.984Z,14.30
2019-02-28T00:54:57.936Z,15.80
2019-02-28T00:55:57.876Z,14.80
2019-02-28T00:56:57.834Z,14.30
2019-02-28T00:57:57.771Z,14.00
2019-02-28T00:59:00.497Z,15.50
2019-02-28T00:59:57.648Z,14.70
2019-02-28T01:00:57.594Z,14.80
2019-02-28T01:01:57.596Z,16.00
2019-02-28T01:02:58.051Z,16.00
2019-02-28T01:03:58.192Z,14.60
2019-02-28T01:04:57.368Z,15.50
2019-02-28T01:05:57.315Z,17.10
2019-02-28T01:06:57.291Z,17.10
2019-02-28T01:07:57.196Z,15.80
2019-02-28T01:08:57.253Z,17.90
2019-02-28T01:09:57.111Z,17.00
2019-02-28T01:10:57.033Z,17.40
2019-02-28T01:11:57.010Z,17.10
2019-02-28T01:12:56.929Z,16.20
2019-02-28T01:13:58.061Z,15.50
2019-02-28T01:14:56.817Z,16.50
2019-02-28T01:15:56.759Z,16.40
2019-02-28T01:16:56.813Z,15.30
2019-02-28T01:17:57.206Z,14.60
2019-02-28T01:18:56.589Z,15.60
2019-02-28T01:19:56.559Z,15.30
2019-02-28T01:20:56.488Z,16.00
2019-02-28T01:21:56.476Z,16.30
2019-02-28T01:22:58.438Z,17.50
2019-02-28T01:23:56.296Z,16.60
2019-02-28T01:24:56.245Z,19.20
2019-02-28T01:25:56.195Z,18.60
2019-02-28T01:26:56.184Z,18.70
2019-02-28T01:27:56.092Z,16.30
2019-02-28T01:29:01.530Z,18.70
2019-02-28T01:29:55.981Z,16.80
2019-02-28T01:30:55.931Z,18.00
2019-02-28T01:31:55.897Z,17.50
2019-02-28T01:32:55.811Z,17.50
2019-02-28T01:33:56.091Z,20.60
2019-02-28T01:34:55.741Z,17.00
2019-02-28T01:35:55.773Z,18.20
2019-02-28T01:36:55.619Z,18.30
2019-02-28T01:37:55.559Z,19.20
2019-02-28T01:38:58.086Z,19.40
2019-02-28T01:39:55.410Z,17.00
2019-02-28T01:40:55.380Z,19.30
2019-02-28T01:41:55.357Z,18.50
2019-02-28T01:42:55.254Z,20.40
2019-02-28T01:43:55.259Z,16.90
2019-02-28T01:44:55.143Z,18.00
2019-02-28T01:45:55.104Z,18.10
2019-02-28T01:46:55.102Z,17.40
2019-02-28T01:47:55.053Z,19.10
2019-02-28T01:48:55.215Z,19.70
2019-02-28T01:49:57.779Z,19.10
2019-02-28T01:50:54.840Z,18.40
2019-02-28T01:51:54.783Z,17.10
2019-02-28T01:52:54.716Z,16.00
2019-02-28T01:53:54.652Z,16.90
2019-02-28T01:54:54.585Z,18.30
2019-02-28T01:55:54.549Z,18.70
2019-02-28T01:56:54.519Z,19.30
2019-02-28T01:57:54.516Z,17.80
2019-02-28T01:58:54.368Z,18.00
2019-02-28T01:59:54.290Z,17.60
2019-02-28T02:00:57.354Z,17.20
2019-02-28T02:01:54.244Z,19.10
2019-02-28T02:02:54.129Z,19.60
2019-02-28T02:03:54.091Z,19.70
2019-02-28T02:04:54.034Z,18.50
2019-02-28T02:05:53.971Z,18.70
2019-02-28T02:06:54.032Z,18.40
2019-02-28T02:07:53.854Z,19.70
2019-02-28T02:08:53.799Z,19.20
2019-02-28T02:09:53.743Z,19.90
2019-02-28T02:10:55.856Z,19.90
2019-02-28T02:11:53.639Z,19.90
2019-02-28T02:12:53.617Z,19.20
2019-02-28T02:13:53.556Z,20.50
2019-02-28T02:14:53.452Z,19.30
2019-02-28T02:15:53.397Z,21.00
2019-02-28T02:16:53.357Z,22.50
2019-02-28T02:17:53.380Z,20.00
2019-02-28T02:18:53.241Z,22.60
2019-02-28T02:19:53.217Z,22.80
2019-02-28T02:20:53.143Z,21.30
2019-02-28T02:21:53.078Z,19.20
2019-02-28T02:22:53.056Z,22.00
2019-02-28T02:23:53.835Z,20.00
2019-02-28T02:24:52.988Z,20.40
2019-02-28T02:25:52.849Z,21.20
2019-02-28T02:26:52.802Z,21.60
2019-02-28T02:27:53.416Z,22.60
2019-02-28T02:28:52.686Z,21.00
2019-02-28T02:29:52.641Z,21.50
2019-02-28T02:30:52.576Z,23.10
2019-02-28T02:31:52.530Z,21.80
2019-02-28T02:32:52.513Z,21.00
2019-02-28T02:33:52.739Z,21.30
2019-02-28T02:34:52.344Z,21.60
2019-02-28T02:35:52.327Z,20.50
2019-02-28T02:36:54.237Z,21.80
2019-02-28T02:37:52.230Z,20.70
2019-02-28T02:38:52.262Z,23.80
2019-02-28T02:39:52.067Z,20.50
2019-02-28T02:40:59.201Z,20.80
2019-02-28T02:41:51.969Z,22.60
2019-02-28T02:42:51.949Z,22.20
2019-02-28T02:43:54.925Z,22.10
2019-02-28T02:44:51.788Z,21.80
2019-02-28T02:45:51.743Z,25.30
2019-02-28T02:46:55.475Z,23.30
2019-02-28T02:47:51.684Z,21.20
2019-02-28T02:48:51.568Z,21.60
2019-02-28T02:49:56.130Z,22.80
2019-02-28T02:50:51.441Z,22.80
2019-02-28T02:51:51.401Z,22.00
2019-02-28T02:52:51.353Z,23.80
2019-02-28T02:53:51.302Z,24.70
2019-02-28T02:54:52.079Z,21.00
2019-02-28T02:55:51.179Z,21.80
2019-02-28T02:56:51.115Z,22.20
2019-02-28T02:57:51.970Z,21.60
2019-02-28T02:58:50.992Z,22.40
2019-02-28T02:59:50.947Z,23.40
2019-02-28T03:00:51.566Z,24.70
2019-02-28T03:01:50.840Z,22.60
2019-02-28T03:02:50.815Z,24.70
2019-02-28T03:03:50.766Z,23.90
2019-02-28T03:04:58.002Z,23.30
2019-02-28T03:05:50.618Z,23.50
2019-02-28T03:06:50.551Z,22.00
2019-02-28T03:07:50.515Z,23.40
2019-02-28T03:08:50.536Z,22.40
2019-02-28T03:09:50.469Z,22.20
2019-02-28T03:10:51.881Z,23.20
2019-02-28T03:11:50.278Z,23.10
2019-02-28T03:12:50.237Z,24.50
2019-02-28T03:13:50.151Z,26.60
2019-02-28T03:14:50.087Z,23.10
2019-02-28T03:15:50.037Z,22.20
2019-02-28T03:16:49.981Z,23.70
2019-02-28T03:17:49.951Z,23.60
2019-02-28T03:18:56.971Z,24.50
2019-02-28T03:19:49.893Z,24.40
2019-02-28T03:20:49.837Z,22.50
2019-02-28T03:21:52.637Z,22.60
2019-02-28T03:22:49.655Z,23.90
2019-02-28T03:23:49.594Z,24.10
2019-02-28T03:24:51.168Z,25.30
2019-02-28T03:25:49.468Z,24.70
2019-02-28T03:26:49.418Z,23.20
2019-02-28T03:27:55.030Z,23.60
2019-02-28T03:28:49.306Z,24.50
2019-02-28T03:29:49.252Z,22.30
2019-02-28T03:30:49.196Z,24.40
2019-02-28T03:31:56.579Z,22.60
2019-02-28T03:32:49.108Z,22.30
2019-02-28T03:33:49.027Z,25.50
2019-02-28T03:34:56.187Z,24.60
2019-02-28T03:35:49.009Z,24.60
2019-02-28T03:36:55.376Z,24.90
2019-02-28T03:37:48.874Z,23.40
2019-02-28T03:38:50.060Z,23.60
2019-02-28T03:39:48.683Z,26.10
2019-02-28T03:40:48.646Z,24.40
2019-02-28T03:41:49.081Z,28.10
2019-02-28T03:42:48.520Z,24.70
2019-02-28T03:43:48.513Z,26.30
2019-02-28T03:44:48.413Z,25.10
2019-02-28T03:45:48.333Z,25.90
2019-02-28T03:46:48.283Z,26.40
2019-02-28T03:47:48.229Z,27.60
2019-02-28T03:48:48.220Z,25.50
2019-02-28T03:49:49.847Z,25.80
2019-02-28T03:50:48.105Z,26.00
2019-02-28T03:51:48.008Z,26.60
2019-02-28T03:52:47.969Z,26.20
2019-02-28T03:53:47.921Z,27.80
2019-02-28T03:54:47.822Z,28.70
2019-02-28T03:55:47.779Z,23.90
2019-02-28T03:56:52.815Z,28.00
2019-02-28T03:57:47.672Z,26.90
2019-02-28T03:58:47.670Z,24.50
2019-02-28T03:59:55.467Z,23.00
2019-02-28T04:00:47.505Z,23.90
2019-02-28T04:01:47.443Z,25.60
2019-02-28T04:02:47.366Z,26.80
2019-02-28T04:03:47.345Z,24.10
2019-02-28T04:04:50.241Z,26.20
2019-02-28T04:05:47.222Z,26.30
2019-02-28T04:06:47.156Z,25.90
2019-02-28T04:07:52.912Z,26.00
2019-02-28T04:08:47.093Z,24.70
2019-02-28T04:09:46.984Z,26.10
2019-02-28T04:10:46.930Z,27.00
2019-02-28T04:11:46.865Z,28.70
2019-02-28T04:12:47.193Z,25.80
2019-02-28T04:13:46.776Z,26.60
2019-02-28T04:14:46.706Z,26.10
2019-02-28T04:16:01.522Z,26.80
2019-02-28T04:16:52.693Z,26.90
2019-02-28T04:17:46.555Z,30.90
2019-02-28T04:18:46.862Z,30.20
2019-02-28T04:19:46.423Z,30.80
2019-02-28T04:20:46.358Z,30.50
2019-02-28T04:21:47.707Z,29.20
2019-02-28T04:22:46.230Z,28.40
2019-02-28T04:23:46.229Z,29.40
2019-02-28T04:24:47.498Z,28.00
2019-02-28T04:25:46.073Z,28.10
2019-02-28T04:26:46.023Z,30.90
2019-02-28T04:27:46.027Z,27.90
2019-02-28T04:28:45.936Z,27.30
2019-02-28T04:29:45.951Z,28.50
2019-02-28T04:30:45.805Z,29.90
2019-02-28T04:31:45.740Z,28.90
2019-02-28T04:32:45.753Z,28.00
2019-02-28T04:33:45.644Z,29.30
2019-02-28T04:34:45.817Z,29.70
2019-02-28T04:35:45.518Z,28.00
2019-02-28T04:36:45.466Z,26.30
2019-02-28T04:37:47.197Z,26.40
2019-02-28T04:38:45.353Z,26.30
2019-02-28T04:39:45.288Z,30.40
2019-02-28T04:40:45.256Z,28.30
2019-02-28T04:41:45.174Z,26.90
2019-02-28T04:42:45.115Z,28.70
2019-02-28T04:43:45.124Z,27.40
2019-02-28T04:44:44.999Z,27.50
2019-02-28T04:45:44.985Z,31.00
2019-02-28T04:46:44.927Z,31.10
2019-02-28T04:47:44.825Z,30.50
2019-02-28T04:48:45.631Z,30.20
2019-02-28T04:49:44.757Z,31.90
2019-02-28T04:50:44.712Z,31.20
2019-02-28T04:51:44.612Z,31.70
2019-02-28T04:52:47.905Z,29.00
2019-02-28T04:53:44.556Z,26.70
2019-02-28T04:54:44.431Z,31.20
2019-02-28T04:55:44.395Z,30.10
2019-02-28T04:56:45.502Z,32.70
2019-02-28T04:57:44.252Z,30.40
2019-02-28T04:58:44.235Z,35.00
2019-02-28T04:59:44.140Z,29.70
2019-02-28T05:00:44.101Z,27.90
2019-02-28T05:01:45.193Z,30.30
2019-02-28T05:02:43.985Z,30.50
2019-02-28T05:03:43.956Z,30.00
2019-02-28T05:04:43.887Z,27.90
2019-02-28T05:05:46.603Z,32.40
2019-02-28T05:06:43.772Z,30.40
2019-02-28T05:07:43.685Z,29.30
2019-02-28T05:08:43.678Z,30.80
2019-02-28T05:09:45.224Z,30.10
2019-02-28T05:10:43.529Z,31.00
2019-02-28T05:11:43.450Z,29.00
2019-02-28T05:12:43.438Z,32.70
2019-02-28T05:13:48.283Z,32.30
2019-02-28T05:14:43.318Z,30.40
2019-02-28T05:15:43.231Z,30.00
2019-02-28T05:16:47.228Z,31.60
2019-02-28T05:17:43.137Z,30.70
2019-02-28T05:18:43.075Z,30.50
2019-02-28T05:19:43.041Z,30.00
2019-02-28T05:20:45.972Z,28.30
2019-02-28T05:21:42.893Z,30.60
2019-02-28T05:22:42.853Z,32.10
2019-02-28T05:23:42.787Z,32.20
2019-02-28T05:24:43.678Z,30.40
2019-02-28T05:25:42.674Z,30.80
2019-02-28T05:26:42.607Z,29.20
2019-02-28T05:27:42.559Z,30.30
2019-02-28T05:28:42.548Z,30.00
2019-02-28T05:29:43.872Z,33.20
2019-02-28T05:30:42.391Z,31.50
2019-02-28T05:31:42.326Z,30.20
2019-02-28T05:32:42.260Z,34.60
2019-02-28T05:33:42.916Z,34.20
2019-02-28T05:34:42.186Z,31.00
2019-02-28T05:35:42.100Z,29.70
2019-02-28T05:36:42.085Z,30.80
2019-02-28T05:37:46.867Z,31.50
2019-02-28T05:38:41.925Z,31.60
2019-02-28T05:39:43.686Z,32.90
2019-02-28T05:40:41.825Z,31.10
2019-02-28T05:41:41.831Z,32.60
2019-02-28T05:42:41.697Z,32.70
2019-02-28T05:43:41.642Z,31.30
2019-02-28T05:44:41.629Z,32.00
2019-02-28T05:45:41.526Z,34.50
2019-02-28T05:46:41.463Z,30.90
2019-02-28T05:47:46.404Z,31.30
2019-02-28T05:48:41.365Z,32.10
2019-02-28T05:49:42.008Z,30.00
2019-02-28T05:50:41.270Z,32.40
2019-02-28T05:51:41.186Z,32.70
2019-02-28T05:52:41.138Z,34.30
2019-02-28T05:53:42.435Z,31.00
2019-02-28T05:54:41.048Z,33.60
2019-02-28T05:55:40.958Z,35.00
2019-02-28T05:56:40.904Z,43.30
2019-02-28T05:57:43.316Z,44.90
2019-02-28T05:58:40.818Z,38.60
2019-02-28T05:59:40.760Z,39.70
2019-02-28T06:00:40.670Z,39.20
2019-02-28T06:01:46.570Z,38.40
2019-02-28T06:02:40.571Z,39.60
2019-02-28T06:03:40.558Z,37.80
2019-02-28T06:04:40.514Z,39.00
2019-02-28T06:05:40.404Z,37.40
2019-02-28T06:06:40.363Z,41.00
2019-02-28T06:07:40.277Z,41.50
2019-02-28T06:08:40.212Z,44.10
2019-02-28T06:09:40.208Z,41.20
2019-02-28T06:10:40.111Z,37.60
2019-02-28T06:11:40.060Z,40.90
2019-02-28T06:12:40.538Z,39.40
2019-02-28T06:13:39.942Z,40.40
2019-02-28T06:14:39.913Z,40.10
2019-02-28T06:15:39.838Z,47.60
2019-02-28T06:16:39.811Z,48.20
2019-02-28T06:17:39.711Z,44.70
2019-02-28T06:18:39.661Z,44.30
2019-02-28T06:19:40.281Z,43.80
2019-02-28T06:20:39.591Z,45.20
2019-02-28T06:21:39.481Z,51.70
2019-02-28T06:22:39.416Z,45.20
2019-02-28T06:23:40.699Z,48.20
2019-02-28T06:24:39.359Z,56.00
2019-02-28T06:25:39.266Z,52.00
2019-02-28T06:26:39.205Z,48.70
2019-02-28T06:27:41.843Z,48.20
2019-02-28T06:28:39.126Z,50.60
2019-02-28T06:29:39.027Z,48.40
2019-02-28T06:30:41.393Z,47.80
2019-02-28T06:31:38.912Z,50.60
2019-02-28T06:32:38.869Z,53.90
2019-02-28T06:33:38.803Z,49.90
2019-02-28T06:34:39.408Z,53.40
2019-02-28T06:35:38.742Z,48.70
2019-02-28T06:36:38.631Z,50.10
2019-02-28T06:37:39.209Z,53.80
2019-02-28T06:38:38.523Z,48.30
2019-02-28T06:39:38.444Z,52.40
2019-02-28T06:40:38.419Z,49.70
2019-02-28T06:41:39.894Z,51.20
2019-02-28T06:42:38.350Z,52.50
2019-02-28T06:43:38.242Z,56.70
2019-02-28T06:44:38.200Z,64.90
2019-02-28T06:45:38.150Z,62.50
2019-02-28T06:46:39.875Z,55.00
2019-02-28T06:47:39.073Z,55.50
2019-02-28T06:48:37.966Z,53.90
2019-02-28T06:49:41.904Z,51.00
2019-02-28T06:50:38.019Z,58.20
2019-02-28T06:51:37.776Z,61.50
2019-02-28T06:52:37.727Z,55.80
2019-02-28T06:53:37.694Z,60.30
2019-02-28T06:54:39.910Z,53.60
2019-02-28T06:55:37.626Z,55.60
2019-02-28T06:56:37.513Z,55.60
2019-02-28T06:57:37.539Z,54.10
2019-02-28T06:58:37.376Z,52.00
2019-02-28T06:59:39.040Z,60.30
2019-02-28T07:00:37.338Z,60.50
2019-02-28T07:01:37.223Z,60.80
2019-02-28T07:02:37.157Z,50.30
2019-02-28T07:03:39.016Z,69.30
2019-02-28T07:04:37.060Z,66.60
2019-02-28T07:05:37.047Z,62.20
2019-02-28T07:06:36.933Z,58.70
2019-02-28T07:07:36.875Z,59.50
2019-02-28T07:08:36.865Z,57.30
2019-02-28T07:09:37.255Z,61.80
2019-02-28T07:10:36.803Z,58.50
2019-02-28T07:11:36.666Z,58.80
2019-02-28T07:12:36.601Z,64.80
2019-02-28T07:13:39.977Z,65.60
2019-02-28T07:14:36.494Z,69.00
2019-02-28T07:15:36.478Z,67.40
2019-02-28T07:16:37.894Z,67.90
2019-02-28T07:17:36.328Z,70.80
2019-02-28T07:18:36.248Z,63.30
2019-02-28T07:19:36.201Z,72.30
2019-02-28T07:20:36.202Z,63.20
2019-02-28T07:21:36.092Z,62.90
2019-02-28T07:22:36.045Z,59.00
2019-02-28T07:23:35.994Z,58.90
2019-02-28T07:24:37.460Z,61.20
2019-02-28T07:25:35.919Z,64.80
2019-02-28T07:26:35.841Z,63.60
2019-02-28T07:27:35.750Z,67.20
2019-02-28T07:28:37.398Z,61.50
2019-02-28T07:29:35.642Z,79.70
2019-02-28T07:30:35.619Z,69.80
2019-02-28T07:31:35.528Z,69.60
2019-02-28T07:32:35.498Z,78.10
2019-02-28T07:33:35.409Z,71.60
2019-02-28T07:34:35.355Z,74.90
2019-02-28T07:35:36.892Z,71.60
2019-02-28T07:36:35.289Z,63.80
2019-02-28T07:37:35.198Z,66.50
2019-02-28T07:38:35.132Z,62.40
2019-02-28T07:39:36.553Z,65.20
2019-02-28T07:40:35.022Z,64.70
2019-02-28T07:41:35.005Z,64.90
2019-02-28T07:42:37.620Z,66.90
2019-02-28T07:43:34.880Z,67.60
2019-02-28T07:44:34.881Z,63.00
2019-02-28T07:45:34.753Z,65.60
2019-02-28T07:46:34.714Z,66.60
2019-02-28T07:47:34.707Z,61.90
2019-02-28T07:48:34.615Z,63.10
2019-02-28T07:49:36.759Z,66.60
2019-02-28T07:50:34.515Z,66.20
2019-02-28T07:51:34.445Z,69.50
2019-02-28T07:52:34.369Z,72.10
2019-02-28T07:53:34.300Z,69.40
2019-02-28T07:54:34.287Z,69.20
2019-02-28T07:55:34.187Z,72.50
2019-02-28T07:56:34.177Z,71.70
2019-02-28T07:57:34.093Z,71.00
2019-02-28T07:58:34.033Z,71.00
2019-02-28T07:59:33.978Z,68.80
2019-02-28T08:00:33.926Z,68.60
2019-02-28T08:01:33.906Z,66.40
2019-02-28T08:02:35.705Z,64.50
2019-02-28T08:03:33.765Z,66.90
2019-02-28T08:04:33.708Z,67.10
2019-02-28T08:05:33.639Z,69.10
2019-02-28T08:06:36.322Z,62.40
2019-02-28T08:07:33.534Z,61.30
2019-02-28T08:08:33.491Z,61.80
2019-02-28T08:09:33.426Z,64.60
2019-02-28T08:10:33.359Z,66.70
2019-02-28T08:11:33.349Z,67.50
2019-02-28T08:12:33.278Z,64.60
2019-02-28T08:13:34.676Z,64.20
2019-02-28T08:14:33.157Z,67.40
2019-02-28T08:15:33.110Z,62.20
2019-02-28T08:16:34.012Z,63.30
2019-02-28T08:17:35.323Z,68.00
2019-02-28T08:18:32.929Z,65.20
2019-02-28T08:19:32.909Z,63.00
2019-02-28T08:20:33.951Z,59.50
2019-02-28T08:21:32.802Z,64.30
2019-02-28T08:22:32.759Z,60.20
2019-02-28T08:23:32.682Z,62.00
2019-02-28T08:24:35.863Z,58.20
2019-02-28T08:25:32.538Z,59.40
2019-02-28T08:26:32.491Z,58.60
2019-02-28T08:27:32.468Z,63.80
2019-02-28T08:28:35.838Z,61.00
2019-02-28T08:29:32.331Z,60.10
2019-02-28T08:30:32.278Z,56.90
2019-02-28T08:31:33.041Z,59.00
2019-02-28T08:32:33.828Z,60.40
2019-02-28T08:33:32.114Z,59.10
2019-02-28T08:34:32.073Z,60.20
2019-02-28T08:35:34.865Z,58.10
2019-02-28T08:36:31.963Z,57.90
2019-02-28T08:37:31.921Z,58.20
2019-02-28T08:38:34.252Z,57.10
2019-02-28T08:39:31.781Z,57.70
2019-02-28T08:40:31.735Z,57.30
2019-02-28T08:41:31.692Z,57.00
2019-02-28T08:42:31.676Z,58.90
2019-02-28T08:43:31.568Z,57.40
2019-02-28T08:44:31.521Z,58.00
2019-02-28T08:45:33.507Z,59.40
2019-02-28T08:46:31.415Z,59.90
2019-02-28T08:47:31.399Z,59.30
2019-02-28T08:48:32.502Z,58.60
2019-02-28T08:49:31.261Z,57.80
2019-02-28T08:50:31.221Z,57.50
2019-02-28T08:51:31.713Z,56.10
2019-02-28T08:52:31.111Z,58.20
2019-02-28T08:53:31.048Z,56.60
2019-02-28T08:54:30.988Z,57.70
2019-02-28T08:55:30.937Z,57.10
2019-02-28T08:56:32.290Z,55.50
2019-02-28T08:57:30.833Z,57.10
2019-02-28T08:58:30.759Z,56.70
2019-02-28T08:59:33.836Z,52.90
2019-02-28T09:00:32.863Z,58.00
2019-02-28T09:01:30.595Z,55.50
2019-02-28T09:02:30.572Z,54.50
2019-02-28T09:03:30.490Z,55.40
2019-02-28T09:04:30.429Z,55.80
2019-02-28T09:05:30.472Z,59.60
2019-02-28T09:06:30.319Z,56.30
2019-02-28T09:07:30.310Z,54.40
2019-02-28T09:08:30.213Z,50.80
2019-02-28T09:09:31.667Z,55.30
2019-02-28T09:10:30.127Z,55.20
2019-02-28T09:11:30.062Z,55.90
2019-02-28T09:12:33.289Z,55.30
2019-02-28T09:13:29.955Z,54.20
2019-02-28T09:14:29.915Z,56.20
2019-02-28T09:15:31.220Z,54.50
2019-02-28T09:16:29.793Z,60.40
2019-02-28T09:17:29.772Z,54.50
2019-02-28T09:18:29.707Z,56.10
2019-02-28T09:19:32.542Z,56.40
2019-02-28T09:20:29.622Z,56.80
2019-02-28T09:21:29.546Z,54.60
2019-02-28T09:22:29.464Z,57.30
2019-02-28T09:23:29.434Z,60.00
2019-02-28T09:24:29.372Z,62.00
2019-02-28T09:25:29.314Z,62.90
2019-02-28T09:26:31.219Z,64.10
2019-02-28T09:27:29.215Z,65.10
2019-02-28T09:28:29.201Z,59.80
2019-02-28T09:29:29.108Z,62.00
2019-02-28T09:30:29.643Z,59.00
2019-02-28T09:31:28.996Z,63.20
2019-02-28T09:32:28.945Z,63.70
2019-02-28T09:33:28.897Z,64.10
2019-02-28T09:34:30.644Z,63.40
2019-02-28T09:35:28.789Z,62.40
2019-02-28T09:36:28.744Z,64.90
2019-02-28T09:37:29.923Z,61.00
2019-02-28T09:38:28.650Z,63.70
2019-02-28T09:39:28.569Z,63.80
2019-02-28T09:40:29.442Z,63.40
2019-02-28T09:41:28.510Z,63.80
2019-02-28T09:42:28.404Z,63.40
2019-02-28T09:43:28.396Z,61.20
2019-02-28T09:44:31.466Z,64.30
2019-02-28T09:45:28.257Z,62.20
2019-02-28T09:46:28.220Z,62.40
2019-02-28T09:47:28.150Z,60.90
2019-02-28T09:48:28.130Z,61.70
2019-02-28T09:49:28.063Z,63.00
2019-02-28T09:50:27.995Z,61.20
2019-02-28T09:51:31.505Z,61.90
2019-02-28T09:52:27.895Z,62.30
2019-02-28T09:53:27.880Z,63.80
2019-02-28T09:54:27.801Z,63.40
2019-02-28T09:55:27.771Z,62.00
2019-02-28T09:56:27.716Z,64.10
2019-02-28T09:57:27.679Z,63.00
2019-02-28T09:58:29.299Z,67.30
2019-02-28T09:59:27.522Z,63.10
2019-02-28T10:00:27.762Z,63.60
2019-02-28T10:01:27.420Z,63.80
2019-02-28T10:02:27.359Z,66.60
2019-02-28T10:03:27.337Z,64.00
2019-02-28T10:04:30.350Z,65.90
2019-02-28T10:05:27.234Z,64.60
2019-02-28T10:06:27.152Z,63.40
2019-02-28T10:07:27.186Z,66.10
2019-02-28T10:08:27.093Z,66.10
2019-02-28T10:09:27.016Z,64.30
2019-02-28T10:10:26.953Z,65.80
2019-02-28T10:11:31.249Z,62.20
2019-02-28T10:12:26.836Z,64.80
2019-02-28T10:13:26.806Z,66.50
2019-02-28T10:14:28.778Z,64.30
2019-02-28T10:15:26.680Z,66.10
2019-02-28T10:16:26.626Z,67.00
2019-02-28T10:17:28.933Z,63.60
2019-02-28T10:18:26.556Z,67.90
2019-02-28T10:19:26.497Z,63.90
2019-02-28T10:20:28.153Z,62.90
2019-02-28T10:21:26.368Z,64.70
2019-02-28T10:22:26.301Z,66.40
2019-02-28T10:23:26.286Z,65.20
2019-02-28T10:24:28.396Z,65.40
2019-02-28T10:25:26.159Z,68.00
2019-02-28T10:26:26.107Z,65.80
2019-02-28T10:27:26.777Z,68.70
2019-02-28T10:28:26.024Z,66.80
2019-02-28T10:29:25.966Z,65.70
2019-02-28T10:30:31.759Z,67.40
2019-02-28T10:31:36.291Z,68.40
2019-02-28T10:32:25.790Z,68.00
2019-02-28T10:33:25.776Z,66.30
2019-02-28T10:34:26.364Z,64.50
2019-02-28T10:35:25.691Z,67.00
2019-02-28T10:36:25.588Z,64.50
2019-02-28T10:37:25.517Z,64.60
2019-02-28T10:38:25.476Z,65.90
2019-02-28T10:39:25.459Z,63.60
2019-02-28T10:40:25.373Z,65.80
2019-02-28T10:41:27.937Z,64.40
2019-02-28T10:42:25.291Z,64.70
2019-02-28T10:43:25.214Z,65.90
2019-02-28T10:44:30.331Z,64.80
2019-02-28T10:45:25.119Z,65.80
2019-02-28T10:46:25.059Z,67.60
2019-02-28T10:47:28.234Z,66.50
2019-02-28T10:48:24.952Z,64.10
2019-02-28T10:49:24.997Z,63.40
2019-02-28T10:50:25.937Z,61.90
2019-02-28T10:51:24.797Z,66.70
2019-02-28T10:52:26.898Z,66.00
2019-02-28T10:53:24.698Z,65.00
2019-02-28T10:54:24.667Z,63.60
2019-02-28T10:55:24.584Z,64.40
2019-02-28T10:56:24.548Z,63.60
2019-02-28T10:57:24.506Z,63.90
2019-02-28T10:58:24.432Z,63.30
2019-02-28T10:59:25.109Z,63.90
2019-02-28T11:00:24.342Z,64.10
2019-02-28T11:01:24.278Z,64.70
2019-02-28T11:02:24.218Z,64.00
2019-02-28T11:03:24.170Z,60.90
2019-02-28T11:04:24.145Z,65.10
2019-02-28T11:05:24.087Z,66.20
2019-02-28T11:06:25.260Z,65.20
2019-02-28T11:07:23.971Z,64.10
2019-02-28T11:08:23.921Z,66.20
2019-02-28T11:09:25.518Z,65.40
2019-02-28T11:10:23.808Z,63.60
2019-02-28T11:11:23.762Z,65.60
2019-02-28T11:12:23.916Z,66.30
2019-02-28T11:13:23.662Z,63.00
2019-02-28T11:14:23.635Z,63.70
2019-02-28T11:15:23.644Z,61.40
2019-02-28T11:16:23.797Z,65.70
2019-02-28T11:17:23.447Z,66.10
2019-02-28T11:18:23.413Z,64.90
2019-02-28T11:19:23.370Z,64.40
2019-02-28T11:20:26.092Z,65.30
2019-02-28T11:21:23.253Z,62.60
2019-02-28T11:22:23.203Z,65.00
2019-02-28T11:23:23.141Z,64.40
2019-02-28T11:24:23.666Z,64.80
2019-02-28T11:25:23.078Z,65.60
2019-02-28T11:26:22.990Z,65.10
2019-02-28T11:27:23.019Z,64.30
2019-02-28T11:28:27.971Z,65.30
2019-02-28T11:29:22.860Z,64.00
2019-02-28T11:30:22.808Z,62.80
2019-02-28T11:31:22.733Z,61.30
2019-02-28T11:32:22.682Z,64.20
2019-02-28T11:33:22.917Z,59.40
2019-02-28T11:34:22.609Z,61.40
2019-02-28T11:35:23.152Z,63.80
2019-02-28T11:36:22.529Z,65.40
2019-02-28T11:37:22.430Z,64.80
2019-02-28T11:38:22.382Z,62.00
2019-02-28T11:39:22.351Z,63.00
2019-02-28T11:40:22.272Z,63.60
2019-02-28T11:41:22.246Z,62.50
2019-02-28T11:42:24.614Z,62.70
2019-02-28T11:43:22.160Z,58.80
2019-02-28T11:44:22.146Z,65.20
2019-02-28T11:45:25.330Z,64.50
2019-02-28T11:46:21.962Z,63.40
2019-02-28T11:47:23.292Z,59.50
2019-02-28T11:48:21.877Z,62.20
2019-02-28T11:49:21.869Z,64.70
2019-02-28T11:50:21.767Z,63.30
2019-02-28T11:51:21.745Z,62.00
2019-02-28T11:52:24.451Z,60.80
2019-02-28T11:53:21.614Z,64.20
2019-02-28T11:54:21.590Z,62.40
2019-02-28T11:55:21.531Z,64.50
2019-02-28T11:56:21.465Z,60.40
2019-02-28T11:57:21.451Z,61.80
2019-02-28T11:58:21.364Z,61.70
2019-02-28T11:59:24.214Z,61.40
2019-02-28T12:00:21.288Z,59.10
2019-02-28T12:01:21.214Z,58.80
2019-02-28T12:02:21.473Z,58.10
2019-02-28T12:03:21.115Z,61.40
2019-02-28T12:04:21.088Z,60.30
2019-02-28T12:05:21.066Z,58.90
2019-02-28T12:06:22.467Z,59.20
2019-02-28T12:07:20.907Z,60.40
2019-02-28T12:08:22.352Z,59.40
2019-02-28T12:09:20.855Z,60.00
2019-02-28T12:10:20.759Z,59.10
2019-02-28T12:11:20.706Z,58.60
2019-02-28T12:12:20.663Z,61.30
2019-02-28T12:13:20.715Z,62.20
2019-02-28T12:14:20.618Z,58.10
2019-02-28T12:15:20.512Z,60.10
2019-02-28T12:16:20.465Z,63.50
2019-02-28T12:17:20.398Z,60.30
2019-02-28T12:18:20.391Z,59.90
2019-02-28T12:19:20.314Z,61.10
2019-02-28T12:20:25.959Z,61.70
2019-02-28T12:21:20.206Z,62.00
2019-02-28T12:22:20.149Z,59.80
2019-02-28T12:23:22.985Z,60.70
2019-02-28T12:24:20.067Z,61.10
2019-02-28T12:25:20.040Z,61.10
2019-02-28T12:26:21.100Z,60.80
2019-02-28T12:27:19.921Z,57.20
2019-02-28T12:28:19.862Z,60.50
2019-02-28T12:29:19.811Z,60.50
2019-02-28T12:30:21.939Z,60.60
2019-02-28T12:31:19.701Z,60.60
2019-02-28T12:32:19.659Z,57.70
2019-02-28T12:33:22.985Z,58.70
2019-02-28T12:34:19.556Z,60.30
2019-02-28T12:35:19.551Z,62.00
2019-02-28T12:36:19.443Z,61.30
2019-02-28T12:37:22.097Z,60.10
2019-02-28T12:38:19.340Z,61.00
2019-02-28T12:39:19.324Z,61.50
2019-02-28T12:40:19.287Z,59.00
2019-02-28T12:41:21.727Z,61.70
2019-02-28T12:42:19.145Z,60.60
2019-02-28T12:43:19.089Z,61.20
2019-02-28T12:44:19.987Z,63.30
2019-02-28T12:45:21.259Z,60.20
2019-02-28T12:46:18.949Z,59.70
2019-02-28T12:47:18.909Z,56.60
2019-02-28T12:48:18.875Z,61.90
2019-02-28T12:49:21.989Z,58.80
2019-02-28T12:50:18.770Z,59.30
2019-02-28T12:51:18.702Z,58.30